Time;durP1;ratioP1;P1;durP2;ratioP2;P2;SDS_P1;SDS_P2;PMS_P1;PMS_P2;Temp;Humidity;BMP_temperature;BMP_pressure;BME280_temperature;BME280_humidity;BME280_pressure;Samples;Min_cycle;Max_cycle;Signal;HPM_P1;HPM_P2
2022/11/26 00:01:17;;;;;;;22.42;11.15;;;6.90;99.90;;;;;;5058703;28;20040;-64
2022/11/26 00:03:43;;;;;;;29.08;11.73;;;6.80;99.90;;;;;;5057934;28;20056;-64
2022/11/26 00:06:28;;;;;;;26.80;11.73;;;6.70;99.90;;;;;;5057738;28;20120;-64
2022/11/26 00:08:54;;;;;;;24.80;11.02;;;6.70;99.90;;;;;;5057791;28;20087;-64
2022/11/26 00:11:20;;;;;;;27.02;11.70;;;6.70;99.90;;;;;;5057785;28;20020;-64
2022/11/26 00:13:46;;;;;;;26.85;11.90;;;6.70;99.90;;;;;;5057538;28;20032;-64
2022/11/26 00:16:13;;;;;;;27.70;12.35;;;6.80;99.90;;;;;;5024516;28;20125;-64
2022/11/26 00:18:40;;;;;;;25.27;11.00;;;6.80;99.90;;;;;;5058419;28;20389;-63
2022/11/26 00:21:22;;;;;;;30.35;11.95;;;6.70;99.90;;;;;;5058303;28;20044;-63
2022/11/26 00:23:49;;;;;;;28.10;12.55;;;6.80;99.90;;;;;;5057391;28;20355;-63
2022/11/26 00:26:20;;;;;;;30.15;12.85;;;6.80;99.90;;;;;;5058248;28;20039;-64
2022/11/26 00:28:59;;;;;;;28.70;12.10;;;6.80;99.90;;;;;;5058296;28;20132;-64
2022/11/26 00:31:26;;;;;;;29.40;11.25;;;6.70;99.90;;;;;;5058769;28;20412;-64
2022/11/26 00:33:52;;;;;;;30.63;12.18;;;6.70;99.90;;;;;;5057264;28;20078;-65
2022/11/26 00:36:24;;;;;;;22.77;11.02;;;6.70;99.90;;;;;;5040702;28;20033;-64
2022/11/26 00:38:59;;;;;;;20.42;11.50;;;6.60;99.90;;;;;;5057210;28;20085;-64
2022/11/26 00:41:30;;;;;;;29.02;11.80;;;6.60;99.90;;;;;;5057481;28;20446;-64
2022/11/26 00:43:57;;;;;;;31.73;11.20;;;6.60;99.90;;;;;;5057829;28;20355;-65
2022/11/26 00:46:23;;;;;;;35.80;12.63;;;6.50;99.90;;;;;;5057780;28;20106;-64
2022/11/26 00:48:49;;;;;;;28.50;12.82;;;6.60;99.90;;;;;;5057756;28;20052;-64
2022/11/26 00:51:27;;;;;;;30.63;12.32;;;6.60;99.90;;;;;;5040397;28;20451;-65
2022/11/26 00:53:57;;;;;;;32.83;12.50;;;6.60;99.90;;;;;;5057059;28;20025;-64
2022/11/26 00:56:23;;;;;;;26.23;11.80;;;6.50;99.90;;;;;;5056941;28;20098;-64
2022/11/26 00:58:50;;;;;;;34.15;12.18;;;6.50;99.90;;;;;;5040416;28;20337;-64
2022/11/26 01:01:27;;;;;;;28.00;11.48;;;6.50;99.90;;;;;;5057615;28;20377;-64
2022/11/26 01:03:53;;;;;;;31.48;10.90;;;6.30;99.90;;;;;;5056566;28;20078;-64
2022/11/26 01:06:32;;;;;;;27.48;11.57;;;6.30;99.90;;;;;;5056836;28;20405;-63
2022/11/26 01:08:58;;;;;;;30.60;11.13;;;6.20;99.90;;;;;;5057446;28;20099;-64
2022/11/26 01:11:25;;;;;;;31.20;11.57;;;6.10;99.90;;;;;;5040043;28;20049;-64
2022/11/26 01:13:53;;;;;;;30.52;10.60;;;6.10;99.90;;;;;;5057398;28;20289;-63
2022/11/26 01:16:22;;;;;;;26.13;10.98;;;6.10;99.90;;;;;;5057368;28;20028;-64
2022/11/26 01:18:49;;;;;;;32.40;11.40;;;6.00;99.90;;;;;;5057297;28;20036;-64
2022/11/26 01:21:15;;;;;;;31.25;11.98;;;6.10;99.90;;;;;;5057215;28;20029;-64
2022/11/26 01:23:41;;;;;;;29.38;11.32;;;6.10;99.90;;;;;;5039933;28;20025;-64
2022/11/26 01:26:17;;;;;;;23.20;10.07;;;6.10;99.90;;;;;;5056204;28;20033;-64
2022/11/26 01:28:44;;;;;;;28.27;11.65;;;6.10;99.90;;;;;;5039841;28;20028;-64
2022/11/26 01:31:15;;;;;;;32.13;10.85;;;6.10;99.90;;;;;;5057114;28;20063;-65
2022/11/26 01:33:41;;;;;;;28.33;10.27;;;6.00;99.90;;;;;;5056284;28;20124;-65
2022/11/26 01:36:35;;;;;;;25.10;10.63;;;6.00;99.90;;;;;;5056337;28;20033;-64
2022/11/26 01:39:16;;;;;;;21.65;10.57;;;6.00;99.90;;;;;;5056352;28;20032;-64
2022/11/26 01:41:47;;;;;;;29.13;11.43;;;6.00;99.90;;;;;;5056549;28;20025;-64
2022/11/26 01:44:23;;;;;;;28.20;10.95;;;6.00;99.90;;;;;;5056125;28;20032;-64
2022/11/26 01:46:50;;;;;;;26.40;10.45;;;6.00;99.90;;;;;;5056069;28;20052;-64
2022/11/26 01:49:24;;;;;;;25.42;10.45;;;6.00;99.90;;;;;;5056071;28;20123;-64
2022/11/26 01:52:04;;;;;;;28.75;10.38;;;5.90;99.90;;;;;;5056849;28;20021;-64
2022/11/26 01:54:31;;;;;;;28.33;11.07;;;5.90;99.90;;;;;;5056077;28;20036;-64
2022/11/26 01:57:21;;;;;;;30.08;10.88;;;5.90;99.90;;;;;;5056711;28;20029;-64
2022/11/26 01:59:52;;;;;;;29.60;10.25;;;5.90;99.90;;;;;;5056415;28;20049;-64
2022/11/26 02:02:21;;;;;;;23.97;10.17;;;5.90;99.90;;;;;;5039483;28;20024;-64
2022/11/26 02:05:00;;;;;;;27.83;10.30;;;5.90;99.90;;;;;;5055653;28;20041;-64
2022/11/26 02:07:26;;;;;;;28.42;10.35;;;5.80;99.90;;;;;;5056760;28;20065;-64
2022/11/26 02:09:52;;;;;;;25.95;10.30;;;5.80;99.90;;;;;;5056058;28;20296;-64
2022/11/26 02:12:18;;;;;;;27.27;10.18;;;5.80;99.90;;;;;;5056001;28;20044;-64
2022/11/26 02:14:44;;;;;;;28.60;10.50;;;5.80;99.90;;;;;;5056416;28;20040;-64
2022/11/26 02:17:35;;;;;;;28.58;10.85;;;5.70;99.90;;;;;;5055687;28;20063;-64
2022/11/26 02:20:39;;;;;;;28.27;10.27;;;5.70;99.90;;;;;;5056557;28;20025;-64
2022/11/26 02:23:36;;;;;;;23.23;10.73;;;5.70;99.90;;;;;;5039176;28;20102;-64
2022/11/26 02:26:08;;;;;;;24.83;9.75;;;5.60;99.90;;;;;;5056567;28;20045;-64
2022/11/26 02:29:11;;;;;;;23.33;10.63;;;5.60;99.90;;;;;;5056488;28;20029;-64
2022/11/26 02:32:26;;;;;;;23.15;10.88;;;5.60;99.90;;;;;;5056458;28;20035;-64
2022/11/26 02:35:06;;;;;;;26.25;10.05;;;5.60;99.90;;;;;;5053429;28;20040;-64
2022/11/26 02:37:46;;;;;;;21.30;9.88;;;5.60;99.90;;;;;;5058949;28;20029;-64
2022/11/26 02:40:12;;;;;;;31.15;10.88;;;5.60;99.90;;;;;;5060691;28;20037;-64
2022/11/26 02:42:38;;;;;;;23.80;9.88;;;5.60;99.90;;;;;;5059501;28;20047;-64
2022/11/26 02:45:04;;;;;;;27.92;9.90;;;5.60;99.90;;;;;;5042799;28;20060;-64
2022/11/26 02:47:32;;;;;;;31.00;10.75;;;5.50;99.90;;;;;;5059930;28;20037;-64
2022/11/26 02:50:01;;;;;;;28.98;10.57;;;5.50;99.90;;;;;;5060001;28;20028;-64
2022/11/26 02:52:28;;;;;;;24.60;10.95;;;5.60;99.90;;;;;;5059228;28;20025;-64
2022/11/26 02:54:55;;;;;;;26.67;10.73;;;5.50;99.90;;;;;;5059288;28;20043;-64
2022/11/26 02:57:26;;;;;;;26.88;10.10;;;5.50;99.90;;;;;;5042538;28;20037;-64
2022/11/26 02:59:52;;;;;;;26.08;10.75;;;5.50;99.90;;;;;;5059989;28;20117;-64
2022/11/26 03:02:27;;;;;;;33.42;10.80;;;5.50;99.90;;;;;;5042431;28;20029;-64
2022/11/26 03:04:57;;;;;;;27.35;10.20;;;5.50;99.90;;;;;;5059769;28;20285;-64
2022/11/26 03:07:23;;;;;;;19.90;9.18;;;5.60;99.90;;;;;;5059054;28;20064;-65
2022/11/26 03:09:57;;;;;;;28.50;10.20;;;5.50;99.90;;;;;;5025966;28;20421;-64
2022/11/26 03:12:24;;;;;;;27.23;10.43;;;5.50;99.90;;;;;;5058897;28;20082;-64
2022/11/26 03:14:50;;;;;;;22.02;10.70;;;5.50;99.90;;;;;;5042225;28;20075;-64
2022/11/26 03:17:17;;;;;;;22.52;10.13;;;5.50;99.90;;;;;;5059251;28;20133;-64
2022/11/26 03:19:43;;;;;;;27.65;10.05;;;5.50;99.90;;;;;;5058761;28;20364;-64
2022/11/26 03:22:09;;;;;;;28.65;9.77;;;5.50;99.90;;;;;;5058803;28;20304;-64
2022/11/26 03:24:36;;;;;;;25.48;10.38;;;5.50;99.90;;;;;;5059364;28;20392;-64
2022/11/26 03:27:02;;;;;;;25.90;10.00;;;5.50;99.90;;;;;;5058627;28;20381;-64
2022/11/26 03:29:27;;;;;;;30.42;9.45;;;5.50;99.90;;;;;;5058710;28;20052;-64
2022/11/26 03:31:53;;;;;;;28.15;9.35;;;5.50;99.90;;;;;;5058610;28;20406;-64
2022/11/26 03:34:19;;;;;;;26.65;10.23;;;5.50;99.90;;;;;;5058590;28;20061;-64
2022/11/26 03:36:45;;;;;;;30.33;9.68;;;5.50;99.90;;;;;;5059156;28;20036;-64
2022/11/26 03:39:10;;;;;;;26.73;8.93;;;5.50;99.90;;;;;;5059210;28;20055;-64
2022/11/26 03:41:36;;;;;;;23.42;9.73;;;5.50;99.90;;;;;;5058524;28;20033;-65
2022/11/26 03:44:02;;;;;;;32.13;9.68;;;5.50;99.90;;;;;;5058989;28;20029;-65
2022/11/26 03:46:28;;;;;;;25.23;9.80;;;5.50;99.90;;;;;;5058110;28;20040;-64
2022/11/26 03:48:54;;;;;;;32.90;9.35;;;5.50;99.90;;;;;;5058151;28;20416;-64
2022/11/26 03:51:20;;;;;;;26.77;9.63;;;5.50;99.90;;;;;;5058066;28;20039;-64
2022/11/26 03:53:46;;;;;;;28.42;9.48;;;5.40;99.90;;;;;;5058864;28;20032;-64
2022/11/26 03:56:12;;;;;;;28.88;9.57;;;5.50;99.90;;;;;;5058033;28;20098;-64
2022/11/26 03:58:38;;;;;;;31.13;9.38;;;5.50;99.90;;;;;;5058812;28;20037;-65
2022/11/26 04:01:08;;;;;;;28.67;9.52;;;5.50;99.90;;;;;;5058146;28;20044;-64
2022/11/26 04:03:34;;;;;;;21.33;8.70;;;5.50;99.90;;;;;;5057921;28;20408;-64
2022/11/26 04:06:00;;;;;;;32.40;9.75;;;5.40;99.90;;;;;;5058509;28;20118;-65
2022/11/26 04:08:25;;;;;;;30.17;10.05;;;5.40;99.90;;;;;;5041422;28;20037;-64
2022/11/26 04:10:51;;;;;;;27.63;8.93;;;5.50;99.90;;;;;;5058474;28;20029;-64
2022/11/26 04:13:17;;;;;;;26.67;9.50;;;5.50;99.90;;;;;;5058043;28;20025;-64
2022/11/26 04:15:43;;;;;;;24.83;8.82;;;5.50;99.90;;;;;;5057805;28;20041;-65
2022/11/26 04:18:08;;;;;;;30.75;8.98;;;5.50;99.90;;;;;;5057600;28;20459;-65
2022/11/26 04:20:34;;;;;;;27.65;9.35;;;5.50;99.90;;;;;;5057574;28;20033;-64
2022/11/26 04:23:00;;;;;;;29.17;9.25;;;5.50;99.90;;;;;;5041009;28;20064;-65
2022/11/26 04:25:26;;;;;;;22.08;9.18;;;5.50;99.90;;;;;;5057918;28;20305;-65
2022/11/26 04:27:52;;;;;;;29.63;9.68;;;5.60;99.90;;;;;;5057537;28;20397;-65
2022/11/26 04:30:17;;;;;;;22.98;8.68;;;5.60;99.90;;;;;;5058219;28;20025;-65
2022/11/26 04:32:43;;;;;;;24.27;9.18;;;5.60;99.90;;;;;;5057557;28;20025;-65
2022/11/26 04:35:09;;;;;;;23.67;9.32;;;5.50;99.90;;;;;;5057829;28;20044;-66
2022/11/26 04:37:35;;;;;;;22.20;8.88;;;5.50;99.90;;;;;;5057287;28;20112;-65
2022/11/26 04:40:01;;;;;;;28.70;8.98;;;5.50;99.90;;;;;;5040671;28;20039;-65
2022/11/26 04:42:27;;;;;;;21.90;9.38;;;5.50;99.90;;;;;;5057963;28;20037;-65
2022/11/26 04:44:52;;;;;;;23.92;9.50;;;5.50;99.90;;;;;;5057839;28;20405;-65
2022/11/26 04:47:18;;;;;;;29.42;8.85;;;5.50;99.90;;;;;;5057960;28;20029;-65
2022/11/26 04:49:44;;;;;;;21.95;8.65;;;5.50;99.90;;;;;;5057006;28;20486;-65
2022/11/26 04:52:10;;;;;;;65.10;33.00;;;5.50;99.90;;;;;;5057722;28;20127;-65
2022/11/26 04:54:36;;;;;;;29.50;8.88;;;5.50;99.90;;;;;;5039981;28;20090;-64
2022/11/26 04:57:01;;;;;;;28.73;8.80;;;5.60;99.90;;;;;;5040408;28;20032;-65
2022/11/26 04:59:27;;;;;;;25.50;8.00;;;5.60;99.90;;;;;;5056418;28;20032;-65
2022/11/26 05:01:53;;;;;;;32.80;8.98;;;5.60;99.90;;;;;;5056756;28;20036;-64
2022/11/26 05:04:19;;;;;;;24.05;7.90;;;5.70;99.90;;;;;;5040140;28;20057;-65
2022/11/26 05:06:45;;;;;;;23.58;8.02;;;5.70;99.90;;;;;;5057648;28;20037;-65
2022/11/26 05:09:11;;;;;;;29.13;7.97;;;5.70;99.90;;;;;;5056702;28;20083;-64
2022/11/26 05:11:36;;;;;;;31.20;8.48;;;5.70;99.90;;;;;;5040050;28;20025;-64
2022/11/26 05:14:03;;;;;;;23.90;7.78;;;5.70;99.90;;;;;;5057387;28;20065;-64
2022/11/26 05:16:28;;;;;;;22.80;8.30;;;5.70;99.90;;;;;;5057450;28;20328;-65
2022/11/26 05:18:54;;;;;;;22.88;7.85;;;5.60;99.90;;;;;;5040071;28;20041;-65
2022/11/26 05:21:20;;;;;;;30.45;7.43;;;5.60;99.90;;;;;;5057235;28;20282;-65
2022/11/26 05:23:46;;;;;;;24.20;8.10;;;5.60;99.90;;;;;;5040462;28;20025;-65
2022/11/26 05:26:12;;;;;;;23.83;7.63;;;5.60;99.90;;;;;;5056440;28;20395;-65
2022/11/26 05:28:37;;;;;;;28.60;7.47;;;5.70;99.90;;;;;;5057215;28;20025;-65
2022/11/26 05:31:03;;;;;;;29.52;8.20;;;5.70;99.90;;;;;;5056351;28;20423;-65
2022/11/26 05:33:29;;;;;;;24.65;7.40;;;5.70;99.90;;;;;;5056412;28;20029;-65
2022/11/26 05:35:55;;;;;;;22.45;7.05;;;5.70;99.90;;;;;;5039959;28;20106;-65
2022/11/26 05:38:21;;;;;;;23.90;7.43;;;5.70;99.90;;;;;;5057080;28;20068;-65
2022/11/26 05:40:47;;;;;;;25.88;7.75;;;5.70;99.90;;;;;;5057030;28;20423;-65
2022/11/26 05:43:13;;;;;;;28.90;7.97;;;5.70;99.90;;;;;;5056835;28;20033;-65
2022/11/26 05:45:39;;;;;;;25.27;7.75;;;5.70;99.90;;;;;;5056912;28;20028;-65
2022/11/26 05:48:05;;;;;;;22.33;7.07;;;5.70;99.90;;;;;;5056116;28;20469;-65
2022/11/26 05:50:32;;;;;;;22.27;7.10;;;5.70;99.90;;;;;;5056214;28;20032;-65
2022/11/26 05:52:58;;;;;;;20.88;6.28;;;5.70;99.90;;;;;;5056981;28;20029;-66
2022/11/26 05:55:24;;;;;;;24.45;6.80;;;5.70;99.90;;;;;;5056528;28;20458;-65
2022/11/26 05:57:50;;;;;;;23.30;6.40;;;5.70;99.90;;;;;;5056853;28;20458;-64
2022/11/26 06:00:17;;;;;;;26.30;6.43;;;5.70;99.90;;;;;;5056771;28;20385;-65
2022/11/26 06:02:43;;;;;;;27.95;6.32;;;5.70;99.90;;;;;;5057080;28;20079;-65
2022/11/26 06:05:10;;;;;;;26.95;6.82;;;5.70;99.90;;;;;;5056453;28;20056;-64
2022/11/26 06:07:36;;;;;;;21.70;6.72;;;5.70;99.90;;;;;;5056874;28;20048;-65
2022/11/26 06:10:03;;;;;;;26.85;6.22;;;5.70;99.90;;;;;;5039347;28;20392;-64
2022/11/26 06:12:28;;;;;;;25.23;6.57;;;5.80;99.90;;;;;;5041814;28;20025;-65
2022/11/26 06:14:54;;;;;;;22.33;6.20;;;5.80;99.90;;;;;;5060649;28;20033;-65
2022/11/26 06:17:20;;;;;;;30.33;7.07;;;5.70;99.90;;;;;;5043288;28;20052;-65
2022/11/26 06:19:46;;;;;;;22.08;6.78;;;5.80;99.90;;;;;;5059947;28;20356;-65
2022/11/26 06:22:12;;;;;;;22.55;6.47;;;5.70;99.90;;;;;;5043324;28;20033;-64
2022/11/26 06:24:38;;;;;;;18.92;6.60;;;5.80;99.90;;;;;;5060111;28;20087;-65
2022/11/26 06:27:03;;;;;;;25.70;7.20;;;5.80;99.90;;;;;;5059729;28;20412;-64
2022/11/26 06:29:29;;;;;;;23.10;6.68;;;5.80;99.90;;;;;;5059877;28;20028;-64
2022/11/26 06:31:55;;;;;;;19.58;6.40;;;5.80;99.90;;;;;;5060327;28;20040;-65
2022/11/26 06:34:22;;;;;;;26.83;7.18;;;5.90;99.90;;;;;;5059814;28;20029;-65
2022/11/26 06:36:47;;;;;;;28.15;6.43;;;5.80;99.90;;;;;;5060571;28;20021;-65
2022/11/26 06:39:13;;;;;;;27.60;6.85;;;5.90;99.90;;;;;;5060334;28;20292;-65
2022/11/26 06:41:39;;;;;;;29.05;6.35;;;5.90;99.90;;;;;;5060342;28;20295;-65
2022/11/26 06:44:05;;;;;;;25.55;6.93;;;5.90;99.90;;;;;;5060167;28;20401;-64
2022/11/26 06:46:33;;;;;;;20.55;6.93;;;5.90;99.90;;;;;;5059484;28;20021;-64
2022/11/26 06:49:03;;;;;;;22.00;7.47;;;5.80;99.90;;;;;;5059963;28;20029;-64
2022/11/26 06:51:29;;;;;;;28.08;6.90;;;5.80;99.90;;;;;;5026449;28;20119;-64
2022/11/26 06:53:55;;;;;;;30.10;7.82;;;5.80;99.90;;;;;;5059250;28;20083;-64
2022/11/26 06:56:21;;;;;;;18.08;5.95;;;5.80;99.90;;;;;;5060026;28;20171;-65
2022/11/26 06:58:48;;;;;;;24.85;6.68;;;5.80;99.90;;;;;;5059157;28;20107;-64
2022/11/26 07:01:22;;;;;;;29.98;6.75;;;5.80;99.90;;;;;;5059471;28;20032;-64
2022/11/26 07:03:48;;;;;;;21.25;6.55;;;5.80;99.90;;;;;;5042294;28;20024;-64
2022/11/26 07:06:29;;;;;;;28.23;6.45;;;5.80;99.90;;;;;;5058329;28;20376;-65
2022/11/26 07:08:57;;;;;;;22.25;6.18;;;5.80;99.90;;;;;;5057819;28;20033;-66
2022/11/26 07:11:24;;;;;;;27.70;6.38;;;5.90;99.90;;;;;;5058403;28;20032;-65
2022/11/26 07:13:50;;;;;;;29.10;7.05;;;5.90;99.90;;;;;;5058468;28;20093;-68
2022/11/26 07:16:16;;;;;;;21.00;6.20;;;6.00;99.90;;;;;;5041136;28;20041;-65
2022/11/26 07:18:46;;;;;;;28.88;7.15;;;6.00;99.90;;;;;;5057686;28;20300;-65
2022/11/26 07:21:12;;;;;;;25.17;7.10;;;5.90;99.90;;;;;;5057527;28;20032;-67
2022/11/26 07:23:39;;;;;;;19.35;6.40;;;5.90;99.90;;;;;;5057019;28;20044;-64
2022/11/26 07:26:06;;;;;;;26.05;6.57;;;6.00;99.90;;;;;;5057587;28;20067;-64
2022/11/26 07:28:32;;;;;;;26.33;6.82;;;6.00;99.90;;;;;;5058021;28;20021;-64
2022/11/26 07:31:18;;;;;;;22.45;6.63;;;6.00;99.90;;;;;;5057397;28;20103;-65
2022/11/26 07:33:45;;;;;;;23.88;6.47;;;6.10;99.90;;;;;;5058295;28;20055;-67
2022/11/26 07:36:20;;;;;;;20.50;6.35;;;6.10;99.90;;;;;;5058156;28;20311;-66
2022/11/26 07:38:46;;;;;;;20.15;5.82;;;6.10;99.90;;;;;;5057506;28;20395;-67
2022/11/26 07:41:15;;;;;;;19.50;5.95;;;6.10;99.90;;;;;;5040787;28;20090;-64
2022/11/26 07:43:41;;;;;;;26.38;6.13;;;6.20;99.90;;;;;;5057868;28;20029;-64
2022/11/26 07:46:09;;;;;;;24.02;6.20;;;6.20;99.90;;;;;;5058620;28;20079;-64
2022/11/26 07:48:38;;;;;;;20.15;6.35;;;6.30;99.90;;;;;;5057048;28;20033;-64
2022/11/26 07:51:04;;;;;;;22.35;6.75;;;6.40;99.90;;;;;;5057178;28;20033;-65
2022/11/26 07:53:31;;;;;;;22.92;6.57;;;6.50;99.90;;;;;;5057836;28;20025;-63
2022/11/26 07:55:57;;;;;;;24.48;6.32;;;6.60;99.90;;;;;;5040758;28;20147;-64
2022/11/26 07:58:23;;;;;;;23.73;6.63;;;6.60;99.90;;;;;;5057816;28;20051;-65
2022/11/26 08:00:49;;;;;;;22.67;6.50;;;6.60;99.90;;;;;;5040385;28;20037;-67
2022/11/26 08:03:15;;;;;;;22.88;6.82;;;6.60;99.90;;;;;;5056827;28;20111;-65
2022/11/26 08:05:42;;;;;;;23.73;6.65;;;6.70;99.90;;;;;;5001140;28;1148595;-64
2022/11/26 08:08:08;;;;;;;23.63;6.43;;;6.70;99.90;;;;;;5057835;28;20033;-66
2022/11/26 08:10:34;;;;;;;27.30;6.60;;;6.70;99.90;;;;;;5058587;28;20025;-63
2022/11/26 08:13:00;;;;;;;22.77;5.93;;;6.70;99.90;;;;;;5057767;28;20029;-62
2022/11/26 08:15:26;;;;;;;24.90;6.35;;;6.80;99.90;;;;;;5041201;28;20033;-64
2022/11/26 08:17:55;;;;;;;25.58;6.80;;;6.90;99.90;;;;;;5058409;28;20037;-64
2022/11/26 08:20:22;;;;;;;22.65;6.55;;;6.90;99.90;;;;;;5058861;28;20041;-63
2022/11/26 08:22:48;;;;;;;19.25;6.47;;;7.00;99.90;;;;;;5057607;28;20041;-66
2022/11/26 08:25:13;;;;;;;25.70;6.93;;;7.10;99.90;;;;;;5057501;28;20415;-67
2022/11/26 08:27:39;;;;;;;23.85;6.00;;;7.10;99.90;;;;;;5040753;28;20040;-66
2022/11/26 08:30:06;;;;;;;26.13;6.30;;;7.20;99.90;;;;;;5058775;28;20029;-67
2022/11/26 08:32:33;;;;;;;24.15;6.50;;;7.20;99.90;;;;;;5040835;28;20504;-65
2022/11/26 08:34:59;;;;;;;23.02;6.03;;;7.30;99.90;;;;;;5057833;28;20091;-66
2022/11/26 08:37:25;;;;;;;25.48;6.13;;;7.30;99.90;;;;;;5057307;28;20057;-65
2022/11/26 08:39:50;;;;;;;25.05;6.07;;;7.40;99.90;;;;;;5057280;28;20068;-65
2022/11/26 08:42:16;;;;;;;21.60;5.85;;;7.40;99.90;;;;;;5058328;28;20262;-65
2022/11/26 08:44:42;;;;;;;25.17;6.00;;;7.50;99.90;;;;;;5057102;28;20128;-65
2022/11/26 08:47:08;;;;;;;23.85;6.00;;;7.60;99.90;;;;;;5040459;28;20384;-64
2022/11/26 08:49:34;;;;;;;26.92;5.97;;;7.60;99.90;;;;;;5057752;28;20335;-64
2022/11/26 08:52:00;;;;;;;22.67;6.43;;;7.60;99.90;;;;;;5057112;28;20029;-65
2022/11/26 08:54:26;;;;;;;29.02;6.00;;;7.60;99.90;;;;;;5056948;28;20465;-65
2022/11/26 08:56:53;;;;;;;24.15;5.85;;;7.70;99.90;;;;;;5040332;28;20123;-65
2022/11/26 08:59:21;;;;;;;26.13;5.72;;;7.70;99.90;;;;;;5056933;28;20041;-64
2022/11/26 09:01:47;;;;;;;26.42;6.00;;;7.70;99.90;;;;;;5056937;28;20029;-64
2022/11/26 09:04:13;;;;;;;27.00;5.55;;;7.60;99.90;;;;;;5056661;28;20041;-64
2022/11/26 09:06:40;;;;;;;14.88;5.18;;;7.70;99.90;;;;;;5056577;28;20417;-64
2022/11/26 09:09:13;;;;;;;20.92;5.32;;;7.70;99.90;;;;;;5057478;28;20346;-65
2022/11/26 09:11:45;;;;;;;20.60;5.35;;;7.70;99.90;;;;;;5041504;28;20025;-65
2022/11/26 09:14:12;;;;;;;20.75;5.97;;;7.80;99.90;;;;;;5056731;28;20076;-64
2022/11/26 09:16:38;;;;;;;24.70;6.38;;;7.80;99.90;;;;;;5056542;28;20021;-64
2022/11/26 09:19:05;;;;;;;24.55;5.10;;;7.90;99.90;;;;;;5056540;28;20047;-65
2022/11/26 09:21:33;;;;;;;23.90;6.15;;;7.90;99.90;;;;;;5057167;28;20266;-65
2022/11/26 09:23:59;;;;;;;18.65;5.18;;;8.00;99.90;;;;;;5056375;28;20040;-65
2022/11/26 09:26:24;;;;;;;23.20;5.28;;;7.90;99.90;;;;;;5039777;28;20033;-65
2022/11/26 09:28:51;;;;;;;21.40;5.93;;;8.00;99.90;;;;;;5057107;28;20029;-64
2022/11/26 09:31:17;;;;;;;16.38;5.65;;;8.10;99.90;;;;;;5057151;28;20288;-65
2022/11/26 09:33:43;;;;;;;20.45;6.00;;;8.20;99.90;;;;;;5056040;28;20036;-65
2022/11/26 09:36:12;;;;;;;24.05;5.63;;;8.30;99.90;;;;;;5039772;28;20094;-64
2022/11/26 09:38:38;;;;;;;25.45;6.35;;;8.30;99.90;;;;;;5056972;28;20037;-64
2022/11/26 09:41:36;;;;;;;20.85;5.90;;;8.40;99.90;;;;;;5056916;28;20447;-64
2022/11/26 09:44:18;;;;;;;22.52;5.35;;;8.60;99.90;;;;;;5056763;28;20028;-62
2022/11/26 09:47:21;;;;;;;17.13;5.05;;;9.00;99.90;;;;;;5056601;28;20037;-62
2022/11/26 09:50:13;;;;;;;16.55;4.55;;;9.50;99.90;;;;;;5035380;28;20072;-63
2022/11/26 09:53:12;;;;;;;16.75;4.72;;;9.80;99.90;;;;;;5025805;28;20045;-62
2022/11/26 09:55:41;;;;;;;12.82;4.45;;;9.70;99.90;;;;;;5054726;28;20040;-62
2022/11/26 09:58:20;;;;;;;17.48;4.20;;;9.80;99.90;;;;;;5056734;28;20032;-62
2022/11/26 10:00:48;;;;;;;14.77;3.67;;;9.90;99.90;;;;;;5056137;28;20021;-62
2022/11/26 10:03:23;;;;;;;14.65;4.57;;;10.10;99.90;;;;;;5039331;28;20025;-63
2022/11/26 10:06:00;;;;;;;16.23;3.90;;;10.40;99.90;;;;;;5056561;28;20037;-63
2022/11/26 10:09:05;;;;;;;17.02;3.83;;;10.50;99.90;;;;;;5055830;28;20025;-64
2022/11/26 10:11:47;;;;;;;22.33;4.38;;;10.50;99.90;;;;;;5055410;28;20044;-63
2022/11/26 10:14:35;;;;;;;22.75;3.78;;;10.50;99.90;;;;;;5056563;28;20466;-63
2022/11/26 10:17:34;;;;;;;16.58;3.80;;;10.30;99.90;;;;;;5039217;28;20040;-64
2022/11/26 10:20:45;;;;;;;15.02;3.70;;;10.50;99.90;;;;;;5039001;28;20060;-64
2022/11/26 10:23:11;;;;;;;12.93;3.10;;;10.60;99.90;;;;;;5056756;28;20033;-64
2022/11/26 10:25:50;;;;;;;13.82;3.35;;;10.70;99.90;;;;;;5056231;28;20347;-64
2022/11/26 10:28:29;;;;;;;20.20;3.30;;;11.00;99.90;;;;;;5055733;28;20037;-65
2022/11/26 10:31:00;;;;;;;14.05;3.60;;;11.20;99.90;;;;;;5055697;28;20304;-63
2022/11/26 10:33:33;;;;;;;19.63;4.07;;;10.90;99.90;;;;;;5055710;28;20032;-64
2022/11/26 10:35:58;;;;;;;15.60;3.75;;;10.90;99.90;;;;;;5055699;28;20116;-63
2022/11/26 10:38:24;;;;;;;14.20;3.22;;;10.90;99.90;;;;;;5056263;28;20120;-64
2022/11/26 10:40:50;;;;;;;13.13;3.35;;;10.80;99.90;;;;;;5056839;28;20040;-63
2022/11/26 10:43:20;;;;;;;19.65;3.70;;;10.60;99.90;;;;;;5055677;28;20048;-65
2022/11/26 10:45:53;;;;;;;17.77;3.25;;;10.60;99.90;;;;;;5056677;28;20036;-65
2022/11/26 10:48:26;;;;;;;25.27;3.97;;;10.50;99.90;;;;;;5056268;28;20045;-64
2022/11/26 10:51:15;;;;;;;16.00;3.28;;;10.50;99.90;;;;;;5056736;28;20029;-64
2022/11/26 10:53:59;;;;;;;17.15;3.17;;;10.70;99.90;;;;;;5056255;28;20025;-64
2022/11/26 10:56:54;;;;;;;14.98;3.05;;;10.80;99.90;;;;;;5056234;28;20025;-64
2022/11/26 10:59:35;;;;;;;16.30;3.60;;;10.80;99.90;;;;;;5055032;28;20041;-63
2022/11/26 11:02:05;;;;;;;18.13;4.28;;;10.70;99.90;;;;;;5059455;28;20036;-64
2022/11/26 11:04:42;;;;;;;13.55;3.08;;;10.60;99.90;;;;;;5058782;28;20308;-64
2022/11/26 11:07:26;;;;;;;12.93;3.17;;;10.60;99.90;;;;;;5059780;28;20029;-64
2022/11/26 11:10:06;;;;;;;15.15;3.58;;;10.60;99.90;;;;;;5059818;28;20079;-64
2022/11/26 11:12:33;;;;;;;16.10;3.25;;;10.70;99.90;;;;;;5059079;28;20053;-65
2022/11/26 11:15:24;;;;;;;19.48;3.20;;;10.70;99.90;;;;;;5059693;28;20029;-64
2022/11/26 11:18:06;;;;;;;14.73;3.42;;;10.90;99.90;;;;;;5058817;28;20396;-64
2022/11/26 11:20:33;;;;;;;16.27;3.70;;;11.10;99.90;;;;;;5058727;28;20052;-64
2022/11/26 11:23:10;;;;;;;16.35;3.40;;;11.30;99.90;;;;;;5059119;28;20694;-65
2022/11/26 11:25:40;;;;;;;14.73;3.60;;;11.50;99.90;;;;;;5059167;28;20029;-64
2022/11/26 11:28:20;;;;;;;15.27;3.30;;;11.60;99.90;;;;;;5058493;28;20123;-64
2022/11/26 11:31:02;;;;;;;19.35;3.15;;;11.50;99.90;;;;;;5058573;28;20399;-62
2022/11/26 11:33:28;;;;;;;13.93;3.33;;;11.40;99.90;;;;;;5059424;28;20032;-67
2022/11/26 11:36:10;;;;;;;10.80;2.80;;;11.30;99.90;;;;;;5058512;28;20105;-63
2022/11/26 11:38:57;;;;;;;17.00;3.75;;;11.40;99.90;;;;;;5059191;28;20103;-65
2022/11/26 11:41:34;;;;;;;13.32;3.17;;;11.30;99.90;;;;;;5058353;28;20045;-63
2022/11/26 11:44:16;;;;;;;16.33;4.10;;;11.30;99.90;;;;;;5058901;28;20036;-64
2022/11/26 11:47:07;;;;;;;13.40;4.55;;;11.30;99.90;;;;;;5059042;28;20033;-65
2022/11/26 11:49:47;;;;;;;13.68;2.92;;;11.40;99.90;;;;;;5058908;28;20032;-66
2022/11/26 11:52:32;;;;;;;10.88;3.22;;;11.50;99.90;;;;;;5057959;28;20021;-65
2022/11/26 11:55:20;;;;;;;16.90;3.22;;;11.30;99.90;;;;;;5058107;28;20037;-64
2022/11/26 11:58:05;;;;;;;12.98;3.33;;;11.30;99.90;;;;;;5058757;28;20037;-65
2022/11/26 12:00:45;;;;;;;14.13;3.25;;;11.50;99.90;;;;;;5059348;28;20098;-64
2022/11/26 12:03:56;;;;;;;10.25;2.90;;;11.50;99.90;;;;;;5058071;28;20065;-64
2022/11/26 12:06:38;;;;;;;14.35;3.38;;;11.40;99.90;;;;;;5039331;28;20363;-63
2022/11/26 12:09:12;;;;;;;13.07;3.70;;;11.40;99.90;;;;;;5057432;28;20102;-63
2022/11/26 12:11:56;;;;;;;14.80;2.80;;;11.20;99.90;;;;;;5041260;28;20102;-65
2022/11/26 12:15:05;;;;;;;17.25;3.45;;;11.40;99.90;;;;;;5057789;28;20029;-64
2022/11/26 12:17:59;;;;;;;14.05;3.38;;;11.60;99.90;;;;;;5052004;28;20142;-65
2022/11/26 12:20:42;;;;;;;10.43;2.83;;;11.70;99.90;;;;;;5058955;28;20025;-64
2022/11/26 12:23:23;;;;;;;12.70;3.03;;;12.00;99.90;;;;;;5040806;28;20041;-62
2022/11/26 12:26:05;;;;;;;12.30;3.13;;;12.10;99.90;;;;;;5058256;28;20025;-64
2022/11/26 12:28:37;;;;;;;13.55;2.75;;;12.10;99.90;;;;;;5057539;28;20301;-65
2022/11/26 12:31:14;;;;;;;11.85;3.03;;;12.10;99.90;;;;;;5058238;28;20090;-65
2022/11/26 12:33:51;;;;;;;11.65;2.92;;;12.10;99.90;;;;;;5058017;28;20040;-66
2022/11/26 12:36:37;;;;;;;12.55;3.50;;;12.10;99.90;;;;;;5057380;28;20028;-65
2022/11/26 12:39:17;;;;;;;11.95;3.28;;;12.10;99.90;;;;;;5057212;28;20051;-66
2022/11/26 12:41:52;;;;;;;13.98;2.78;;;12.10;99.90;;;;;;5057334;28;20044;-64
2022/11/26 12:44:34;;;;;;;13.55;3.38;;;12.10;99.90;;;;;;5057270;28;20028;-66
2022/11/26 12:47:19;;;;;;;10.68;2.70;;;12.10;99.90;;;;;;5057216;28;20080;-66
2022/11/26 12:50:18;;;;;;;13.00;2.50;;;12.00;99.90;;;;;;5057023;28;20043;-66
2022/11/26 12:53:09;;;;;;;11.65;2.70;;;11.90;99.90;;;;;;5040108;28;20021;-64
2022/11/26 12:55:50;;;;;;;17.17;3.63;;;11.80;99.90;;;;;;5058146;28;20029;-65
2022/11/26 12:58:22;;;;;;;14.07;2.50;;;11.70;99.90;;;;;;5056980;28;20162;-66
2022/11/26 13:00:52;;;;;;;11.25;2.90;;;11.70;99.90;;;;;;5057004;28;20102;-64
2022/11/26 13:03:29;;;;;;;9.40;2.35;;;11.70;99.90;;;;;;5040883;28;20041;-65
2022/11/26 13:05:55;;;;;;;18.35;3.65;;;11.80;99.90;;;;;;5057519;28;20163;-65